Time;durP1;ratioP1;P1;durP2;ratioP2;P2;SDS_P1;SDS_P2;PMS_P1;PMS_P2;Temp;Humidity;BMP_temperature;BMP_pressure;BME280_temperature;BME280_humidity;BME280_pressure;Samples;Min_cycle;Max_cycle;Signal;HPM_P1;HPM_P2
2022/07/29 00:00:44;;;;;;;2.55;1.35;;;13.50;99.90;;;;;;5051147;28;20053;-75
2022/07/29 00:03:13;;;;;;;2.90;1.30;;;13.50;99.90;;;;;;5049265;28;20053;-75
2022/07/29 00:05:39;;;;;;;3.35;1.50;;;13.50;99.90;;;;;;5049172;28;20052;-75
2022/07/29 00:08:06;;;;;;;3.92;1.10;;;13.50;99.90;;;;;;5017155;28;20057;-74
2022/07/29 00:10:31;;;;;;;3.55;1.52;;;13.50;99.90;;;;;;5049431;28;20049;-75
2022/07/29 00:12:57;;;;;;;1.85;1.35;;;13.50;99.90;;;;;;5037271;28;20417;-75
2022/07/29 00:15:23;;;;;;;4.47;1.20;;;13.50;99.90;;;;;;5049024;28;20048;-74
2022/07/29 00:17:48;;;;;;;5.25;1.30;;;13.50;99.90;;;;;;5013388;28;20113;-74
2022/07/29 00:20:14;;;;;;;3.67;1.38;;;13.60;99.90;;;;;;5029402;28;20056;-74
2022/07/29 00:22:40;;;;;;;3.00;1.42;;;13.60;99.90;;;;;;5030766;28;20108;-74
2022/07/29 00:25:07;;;;;;;3.45;1.45;;;13.60;99.90;;;;;;5030857;28;20052;-74
2022/07/29 00:27:33;;;;;;;2.30;1.17;;;13.60;99.90;;;;;;5025576;28;20476;-74
2022/07/29 00:29:59;;;;;;;3.50;1.42;;;13.60;99.90;;;;;;5049078;28;20052;-75
2022/07/29 00:32:25;;;;;;;4.80;1.25;;;13.70;99.90;;;;;;5048606;28;20033;-76
2022/07/29 00:37:35;;;;;;;2.60;1.48;;;13.70;99.90;;;;;;5013904;28;20060;-75
2022/07/29 00:40:00;;;;;;;2.47;1.42;;;13.70;99.90;;;;;;5036294;28;20056;-75
2022/07/29 00:42:27;;;;;;;4.00;1.40;;;13.70;99.90;;;;;;5028711;28;20120;-75
2022/07/29 00:44:52;;;;;;;5.47;1.60;;;13.80;99.90;;;;;;5034576;28;20605;-75
2022/07/29 00:47:18;;;;;;;3.72;1.60;;;13.80;99.90;;;;;;5016588;28;20055;-73
2022/07/29 00:49:44;;;;;;;5.35;1.55;;;13.80;99.90;;;;;;5049953;28;20136;-75
2022/07/29 00:52:10;;;;;;;4.80;1.88;;;13.80;99.90;;;;;;5047718;28;20048;-75
2022/07/29 00:54:38;;;;;;;4.43;1.38;;;13.80;99.90;;;;;;5049921;28;20508;-75
2022/07/29 00:57:07;;;;;;;3.85;1.60;;;13.80;99.90;;;;;;5019882;28;20060;-73
2022/07/29 00:59:33;;;;;;;3.60;1.55;;;13.80;99.90;;;;;;5049967;28;20107;-75
2022/07/29 01:01:59;;;;;;;6.38;1.80;;;13.80;99.90;;;;;;5035787;28;20049;-75
2022/07/29 01:04:24;;;;;;;2.83;1.40;;;13.90;99.90;;;;;;5034887;28;20506;-75
2022/07/29 01:06:51;;;;;;;2.03;1.30;;;13.90;99.90;;;;;;5033364;28;20052;-75
2022/07/29 01:09:18;;;;;;;4.13;1.45;;;13.90;99.90;;;;;;5047801;28;20064;-77
2022/07/29 01:11:45;;;;;;;2.88;1.42;;;13.80;99.90;;;;;;5046578;28;20546;-75
2022/07/29 01:14:12;;;;;;;4.85;1.35;;;13.90;99.90;;;;;;5029076;28;20765;-76
2022/07/29 01:17:20;;;;;;;2.92;1.58;;;13.90;99.90;;;;;;5024372;28;20073;-76
2022/07/29 01:20:01;;;;;;;4.05;1.60;;;13.90;99.90;;;;;;5007194;28;20527;-75
2022/07/29 01:22:45;;;;;;;3.28;1.50;;;14.00;99.90;;;;;;5038131;28;20037;-75
2022/07/29 01:25:23;;;;;;;5.03;1.65;;;14.00;99.90;;;;;;5030951;28;20049;-75
2022/07/29 01:28:22;;;;;;;3.38;1.40;;;14.00;99.90;;;;;;5023621;28;20049;-74
2022/07/29 01:30:51;;;;;;;2.75;1.45;;;14.10;99.90;;;;;;5030029;28;20152;-75
2022/07/29 01:36:11;;;;;;;5.30;1.73;;;14.10;99.90;;;;;;5045070;28;20152;-75
2022/07/29 01:38:41;;;;;;;4.03;1.50;;;14.10;99.90;;;;;;5042230;28;20076;-75
2022/07/29 01:41:10;;;;;;;4.15;1.50;;;14.10;99.90;;;;;;5049252;28;20049;-75
2022/07/29 01:43:54;;;;;;;2.88;1.30;;;14.10;99.90;;;;;;5036804;28;20076;-75
2022/07/29 01:46:34;;;;;;;4.15;1.33;;;14.10;99.90;;;;;;5032144;28;20562;-74
2022/07/29 01:49:09;;;;;;;4.72;1.50;;;14.10;99.90;;;;;;5038718;28;20072;-75
2022/07/29 01:51:45;;;;;;;2.75;1.42;;;14.10;99.90;;;;;;5040844;28;20053;-75
2022/07/29 01:54:19;;;;;;;4.22;1.63;;;14.10;99.90;;;;;;5059775;28;20510;-75
2022/07/29 01:56:49;;;;;;;4.88;1.52;;;14.10;99.90;;;;;;5032575;28;20061;-75
2022/07/29 01:59:17;;;;;;;1.95;1.30;;;14.10;99.90;;;;;;5036447;28;20041;-74
2022/07/29 02:01:45;;;;;;;3.38;1.55;;;14.10;99.90;;;;;;5041140;28;20409;-75
2022/07/29 02:04:12;;;;;;;4.05;1.35;;;14.10;99.90;;;;;;5048290;28;20570;-75
2022/07/29 02:06:42;;;;;;;4.50;1.75;;;14.10;99.90;;;;;;5039255;28;20503;-75
2022/07/29 02:09:11;;;;;;;2.78;1.70;;;14.10;99.90;;;;;;5051250;28;20504;-75
2022/07/29 02:11:38;;;;;;;5.00;1.38;;;14.20;99.90;;;;;;5050507;28;20387;-76
2022/07/29 02:14:04;;;;;;;2.63;1.48;;;14.10;99.90;;;;;;5045901;28;20049;-75
2022/07/29 02:16:32;;;;;;;4.22;1.95;;;14.20;99.90;;;;;;5029734;28;20045;-75
2022/07/29 02:19:00;;;;;;;3.35;1.60;;;14.20;99.90;;;;;;5037767;28;20519;-76
2022/07/29 02:21:27;;;;;;;3.35;1.73;;;14.20;99.90;;;;;;5052390;28;20060;-75
2022/07/29 02:23:55;;;;;;;2.95;1.40;;;14.20;99.90;;;;;;5041791;28;20045;-76
2022/07/29 02:26:23;;;;;;;4.28;1.88;;;14.20;99.90;;;;;;5023577;28;20052;-75
2022/07/29 02:28:52;;;;;;;3.15;1.55;;;14.20;99.90;;;;;;5048930;28;20072;-75
2022/07/29 02:31:22;;;;;;;3.33;1.75;;;14.20;99.90;;;;;;5051552;28;20467;-75
2022/07/29 02:33:49;;;;;;;3.13;1.63;;;14.20;99.90;;;;;;5052236;28;20048;-76
2022/07/29 02:36:16;;;;;;;3.10;1.80;;;14.20;99.90;;;;;;5040209;28;20053;-75
2022/07/29 02:38:53;;;;;;;9.05;1.88;;;14.20;99.90;;;;;;5025409;28;20496;-75
2022/07/29 02:41:27;;;;;;;7.35;1.98;;;14.20;99.90;;;;;;5032413;28;20564;-75
2022/07/29 02:43:56;;;;;;;8.02;1.63;;;14.20;99.90;;;;;;5044582;28;20075;-75
2022/07/29 02:46:30;;;;;;;2.45;1.50;;;14.20;99.90;;;;;;5037019;28;20541;-75
2022/07/29 02:49:19;;;;;;;5.28;1.40;;;14.30;99.90;;;;;;5050425;28;20044;-75
2022/07/29 02:52:11;;;;;;;6.47;1.40;;;14.20;99.90;;;;;;5042810;28;20065;-75
2022/07/29 02:54:45;;;;;;;5.00;1.30;;;14.20;99.90;;;;;;5031691;28;20042;-75
2022/07/29 02:57:18;;;;;;;5.70;1.60;;;14.20;99.90;;;;;;5015642;28;20615;-75
2022/07/29 02:59:47;;;;;;;3.35;1.40;;;14.20;99.90;;;;;;5031383;28;20768;-75
2022/07/29 03:02:14;;;;;;;4.15;1.45;;;14.20;99.90;;;;;;5043692;28;20075;-76
2022/07/29 03:04:41;;;;;;;4.30;1.30;;;14.20;99.90;;;;;;5040738;28;20051;-75
2022/07/29 03:07:08;;;;;;;5.13;1.45;;;14.20;99.90;;;;;;5020862;28;20049;-74
2022/07/29 03:09:35;;;;;;;3.90;1.30;;;14.20;99.90;;;;;;5029811;28;20051;-76
2022/07/29 03:12:01;;;;;;;5.00;1.30;;;14.20;99.90;;;;;;5034791;28;20084;-75
2022/07/29 03:14:27;;;;;;;4.93;1.48;;;14.20;99.90;;;;;;5051418;28;20504;-75
2022/07/29 03:16:53;;;;;;;3.10;1.30;;;14.20;99.90;;;;;;5023608;28;20436;-75
2022/07/29 03:19:20;;;;;;;3.35;1.33;;;14.20;99.90;;;;;;5041051;28;20049;-75
2022/07/29 03:21:45;;;;;;;3.25;1.30;;;14.20;99.90;;;;;;5049753;28;20649;-75
2022/07/29 03:24:24;;;;;;;3.03;1.45;;;14.20;99.90;;;;;;5039600;28;20042;-75
2022/07/29 03:26:50;;;;;;;2.90;1.30;;;14.20;99.90;;;;;;5022041;28;20373;-75
2022/07/29 03:29:16;;;;;;;2.72;1.20;;;14.10;99.90;;;;;;5051042;28;20052;-75
2022/07/29 03:31:41;;;;;;;4.63;1.50;;;14.10;99.90;;;;;;5051781;28;20120;-75
2022/07/29 03:34:07;;;;;;;4.78;1.35;;;14.10;99.90;;;;;;5049529;28;20041;-75
2022/07/29 03:36:33;;;;;;;4.80;1.45;;;14.10;99.90;;;;;;5030715;28;20183;-75
2022/07/29 03:39:00;;;;;;;4.43;1.33;;;14.00;99.90;;;;;;5034818;28;20736;-75
2022/07/29 03:41:26;;;;;;;5.13;1.50;;;14.10;99.90;;;;;;5041216;28;20136;-75
2022/07/29 03:43:53;;;;;;;4.32;1.48;;;14.10;99.90;;;;;;5041614;28;20041;-75
2022/07/29 03:46:22;;;;;;;5.00;1.52;;;14.10;99.90;;;;;;5039917;28;20131;-75
2022/07/29 03:48:52;;;;;;;5.38;1.30;;;14.10;99.90;;;;;;5047417;28;20056;-75
2022/07/29 03:51:18;;;;;;;3.65;1.38;;;14.10;99.90;;;;;;5032324;28;20083;-75
2022/07/29 03:53:43;;;;;;;3.17;1.42;;;14.10;99.90;;;;;;5029401;28;20715;-76
2022/07/29 03:56:11;;;;;;;4.60;1.45;;;14.10;99.90;;;;;;5041224;28;20048;-77
2022/07/29 03:58:38;;;;;;;5.32;1.30;;;14.10;99.90;;;;;;5042930;28;20044;-77
2022/07/29 04:01:04;;;;;;;2.97;1.60;;;14.10;99.90;;;;;;5031030;28;20795;-75
2022/07/29 04:03:29;;;;;;;3.42;1.10;;;14.10;99.90;;;;;;5029780;28;20060;-75
2022/07/29 04:06:05;;;;;;;3.60;1.48;;;14.10;99.90;;;;;;5030923;28;20053;-75
2022/07/29 04:08:32;;;;;;;5.05;1.30;;;14.10;99.90;;;;;;5032297;28;20071;-76
2022/07/29 04:10:59;;;;;;;3.85;1.60;;;14.10;99.90;;;;;;5041121;28;20057;-75
2022/07/29 04:13:25;;;;;;;3.05;1.50;;;14.10;99.90;;;;;;5060653;28;20053;-75
2022/07/29 04:15:50;;;;;;;9.57;1.52;;;14.10;99.90;;;;;;5046227;28;20057;-75
2022/07/29 04:18:16;;;;;;;3.17;1.10;;;14.10;99.90;;;;;;5014754;28;20054;-75
2022/07/29 04:20:42;;;;;;;3.95;1.20;;;14.10;99.90;;;;;;5030200;28;20107;-75
2022/07/29 04:23:07;;;;;;;4.53;1.75;;;14.10;99.90;;;;;;5031047;28;20041;-75
2022/07/29 04:25:36;;;;;;;3.72;1.77;;;14.10;99.90;;;;;;5030865;28;20077;-75
2022/07/29 04:28:02;;;;;;;3.70;1.40;;;14.10;99.90;;;;;;5030507;28;20500;-75
2022/07/29 04:30:29;;;;;;;5.72;1.55;;;14.10;99.90;;;;;;5049532;28;20076;-75
2022/07/29 04:32:55;;;;;;;4.65;1.40;;;14.10;99.90;;;;;;5048390;28;20045;-75
2022/07/29 04:35:20;;;;;;;3.35;1.35;;;14.20;99.90;;;;;;5050546;28;20055;-75
2022/07/29 04:37:46;;;;;;;3.78;1.10;;;14.20;99.90;;;;;;5031861;28;20108;-75
2022/07/29 04:40:12;;;;;;;6.20;1.48;;;14.20;99.90;;;;;;5028788;28;20115;-75
2022/07/29 04:42:38;;;;;;;3.13;1.25;;;14.30;99.90;;;;;;5042821;28;20049;-75
2022/07/29 04:45:05;;;;;;;3.75;1.15;;;14.30;99.90;;;;;;5019512;28;20115;-74
2022/07/29 04:47:30;;;;;;;5.20;1.23;;;14.30;99.90;;;;;;5026643;28;20136;-74
2022/07/29 04:49:56;;;;;;;3.40;0.98;;;14.30;99.90;;;;;;5025158;28;20136;-74
2022/07/29 04:52:22;;;;;;;3.00;0.95;;;14.30;99.90;;;;;;5043343;28;20045;-74
2022/07/29 04:54:48;;;;;;;4.95;1.27;;;14.30;99.90;;;;;;5050161;28;20049;-74
2022/07/29 04:57:14;;;;;;;6.53;1.50;;;14.40;99.90;;;;;;5020916;28;20045;-74
2022/07/29 04:59:40;;;;;;;5.90;1.50;;;14.40;99.90;;;;;;5050292;28;20049;-74
2022/07/29 05:02:05;;;;;;;4.38;1.38;;;14.50;99.90;;;;;;5034142;28;20100;-74
2022/07/29 05:04:31;;;;;;;4.38;1.17;;;14.50;99.90;;;;;;5036744;28;20041;-74
2022/07/29 05:06:56;;;;;;;5.20;1.40;;;14.50;99.90;;;;;;5018886;28;20065;-72
2022/07/29 05:09:22;;;;;;;6.53;1.40;;;14.60;99.90;;;;;;5029317;28;20051;-76
2022/07/29 05:11:48;;;;;;;3.90;1.10;;;14.60;99.90;;;;;;5006651;28;20459;-74
2022/07/29 05:14:14;;;;;;;3.05;1.13;;;14.60;99.90;;;;;;5028076;28;20049;-74
2022/07/29 05:16:40;;;;;;;5.55;1.40;;;14.70;99.90;;;;;;5026398;28;20099;-75
2022/07/29 05:19:06;;;;;;;6.00;1.58;;;14.70;99.90;;;;;;5047698;28;20543;-75
2022/07/29 05:21:32;;;;;;;3.72;1.00;;;14.70;99.90;;;;;;5047171;28;20052;-74
2022/07/29 05:23:57;;;;;;;4.85;1.17;;;14.80;99.90;;;;;;5043097;28;20049;-75
2022/07/29 05:26:23;;;;;;;8.05;1.33;;;14.80;99.90;;;;;;5022908;28;20064;-75
2022/07/29 05:28:49;;;;;;;7.30;1.70;;;14.90;99.90;;;;;;5037144;28;20176;-76
2022/07/29 05:31:14;;;;;;;5.15;1.20;;;14.90;99.90;;;;;;5025517;28;20076;-75
2022/07/29 05:33:41;;;;;;;7.95;1.65;;;14.90;99.90;;;;;;5031461;28;20056;-75
2022/07/29 05:36:07;;;;;;;5.68;1.45;;;15.00;99.90;;;;;;5043682;28;20048;-75
2022/07/29 05:38:34;;;;;;;4.45;1.42;;;15.00;99.90;;;;;;5022674;28;20505;-74
2022/07/29 05:41:00;;;;;;;6.05;1.10;;;15.10;99.90;;;;;;5034743;28;20136;-74
2022/07/29 05:43:27;;;;;;;4.35;1.38;;;15.10;99.90;;;;;;5042780;28;20556;-74
2022/07/29 05:45:53;;;;;;;6.25;1.50;;;15.20;99.90;;;;;;5047268;28;20045;-75
2022/07/29 05:48:19;;;;;;;3.08;1.20;;;15.20;99.90;;;;;;5016228;28;20049;-74
2022/07/29 05:50:44;;;;;;;3.63;1.30;;;15.30;99.90;;;;;;5045407;28;20461;-75
2022/07/29 05:53:10;;;;;;;6.57;1.30;;;15.40;99.90;;;;;;5047942;28;20045;-75
2022/07/29 05:55:36;;;;;;;6.97;1.70;;;15.40;99.90;;;;;;5062370;28;20057;-75
2022/07/29 05:58:02;;;;;;;3.70;1.08;;;15.40;99.90;;;;;;5003838;28;20053;-75
2022/07/29 06:00:28;;;;;;;3.35;1.20;;;15.40;99.90;;;;;;5062305;28;20107;-75
2022/07/29 06:02:53;;;;;;;4.10;1.42;;;15.50;99.90;;;;;;5037838;28;20053;-75
2022/07/29 06:05:19;;;;;;;3.65;1.17;;;15.50;99.90;;;;;;5053470;28;20055;-75
2022/07/29 06:07:45;;;;;;;6.15;1.20;;;15.50;99.90;;;;;;5027896;28;20045;-74
2022/07/29 06:10:10;;;;;;;5.40;1.60;;;15.60;99.90;;;;;;5047007;28;20057;-76
2022/07/29 06:12:36;;;;;;;4.22;1.30;;;15.70;99.90;;;;;;5040360;28;20515;-74
2022/07/29 06:15:02;;;;;;;2.42;1.70;;;15.70;99.90;;;;;;5042408;28;20052;-75
2022/07/29 06:17:28;;;;;;;3.05;1.40;;;15.80;99.90;;;;;;5018235;28;20104;-74
2022/07/29 06:19:53;;;;;;;3.47;1.33;;;15.90;99.90;;;;;;5051681;28;20571;-75
2022/07/29 06:22:19;;;;;;;5.85;1.38;;;16.10;99.90;;;;;;5044151;28;20137;-75
2022/07/29 06:24:45;;;;;;;3.72;1.13;;;16.10;99.90;;;;;;5035608;28;20536;-75
2022/07/29 06:27:11;;;;;;;5.63;1.33;;;16.20;99.90;;;;;;5017311;28;20408;-75
2022/07/29 06:29:37;;;;;;;3.60;1.50;;;16.30;99.90;;;;;;5032769;28;20045;-75
2022/07/29 06:32:02;;;;;;;3.92;1.25;;;16.40;99.90;;;;;;5036946;28;20095;-75
2022/07/29 06:34:28;;;;;;;9.15;1.58;;;16.40;99.90;;;;;;5047629;28;20087;-75
2022/07/29 06:36:54;;;;;;;2.95;1.15;;;16.40;99.90;;;;;;5037287;28;20037;-76
2022/07/29 06:39:20;;;;;;;6.05;1.63;;;16.40;99.90;;;;;;5051093;28;20416;-75
2022/07/29 06:41:50;;;;;;;5.45;1.30;;;16.50;99.90;;;;;;5052693;28;20527;-75
2022/07/29 06:44:17;;;;;;;4.65;1.70;;;16.40;99.90;;;;;;5032918;28;20056;-76
2022/07/29 06:46:43;;;;;;;6.07;1.60;;;16.50;99.90;;;;;;5036505;28;20056;-76
2022/07/29 06:49:09;;;;;;;4.95;1.42;;;16.60;99.90;;;;;;5049998;28;20041;-76
2022/07/29 06:51:35;;;;;;;5.57;1.33;;;16.70;99.90;;;;;;5052790;28;20158;-76
2022/07/29 06:54:02;;;;;;;3.88;1.40;;;16.80;99.90;;;;;;5050483;28;20041;-75
2022/07/29 06:56:31;;;;;;;6.03;1.80;;;17.00;99.90;;;;;;5038859;28;20095;-76
2022/07/29 06:58:57;;;;;;;6.35;1.30;;;17.00;99.90;;;;;;5049824;28;20052;-76
2022/07/29 07:01:22;;;;;;;3.58;1.15;;;17.00;99.90;;;;;;5052205;28;20417;-75
2022/07/29 07:03:48;;;;;;;7.13;1.90;;;17.00;99.90;;;;;;5037141;28;20046;-76
2022/07/29 07:06:14;;;;;;;2.50;1.10;;;17.10;99.90;;;;;;5033191;28;20053;-76
2022/07/29 07:08:40;;;;;;;7.53;1.90;;;17.10;99.90;;;;;;5026474;28;20111;-75
2022/07/29 07:11:06;;;;;;;5.53;1.67;;;17.10;99.90;;;;;;5033384;28;20046;-75
2022/07/29 07:13:34;;;;;;;3.50;1.20;;;17.10;99.90;;;;;;5035307;28;20046;-76
2022/07/29 07:16:01;;;;;;;3.70;1.33;;;17.00;99.90;;;;;;5041859;28;20053;-75
2022/07/29 07:18:27;;;;;;;6.03;1.60;;;17.10;99.90;;;;;;5015583;28;20056;-75
2022/07/29 07:20:53;;;;;;;5.78;1.35;;;17.00;99.90;;;;;;5040619;28;20045;-75
2022/07/29 07:23:19;;;;;;;4.43;1.45;;;17.00;99.90;;;;;;5036702;28;20393;-75
2022/07/29 07:25:44;;;;;;;8.55;1.70;;;17.00;99.90;;;;;;5031504;28;20155;-75
2022/07/29 07:28:10;;;;;;;4.63;1.10;;;17.10;99.90;;;;;;5011586;28;20544;-75
2022/07/29 07:30:36;;;;;;;4.90;1.45;;;17.00;99.90;;;;;;5047422;28;20103;-75
2022/07/29 07:33:02;;;;;;;4.35;1.45;;;17.00;99.90;;;;;;5047848;28;20073;-75
2022/07/29 07:35:28;;;;;;;6.07;1.60;;;17.00;99.90;;;;;;5050735;28;20041;-75
2022/07/29 07:37:55;;;;;;;4.22;1.30;;;16.90;99.90;;;;;;5034915;28;20750;-75
2022/07/29 07:40:21;;;;;;;3.78;1.33;;;17.00;99.90;;;;;;5050263;28;20053;-75
2022/07/29 07:42:47;;;;;;;6.43;1.60;;;17.00;99.90;;;;;;5036092;28;20446;-76
2022/07/29 07:45:12;;;;;;;6.60;1.45;;;16.90;99.90;;;;;;5049795;28;20091;-75
2022/07/29 07:47:38;;;;;;;7.13;1.65;;;17.00;99.90;;;;;;5034218;28;20103;-75
2022/07/29 07:50:06;;;;;;;3.53;1.20;;;17.20;99.90;;;;;;5050001;28;20085;-76
2022/07/29 07:52:32;;;;;;;5.32;1.45;;;17.30;99.90;;;;;;5049090;28;20049;-76
2022/07/29 07:54:57;;;;;;;4.10;1.67;;;17.40;99.90;;;;;;5045393;28;20054;-76
2022/07/29 07:57:23;;;;;;;5.93;1.55;;;17.40;99.90;;;;;;5016359;28;20584;-75
2022/07/29 07:59:49;;;;;;;5.10;1.58;;;17.20;99.90;;;;;;5051242;28;20053;-76
2022/07/29 08:02:14;;;;;;;3.33;1.55;;;17.40;99.90;;;;;;5047056;28;20076;-75
2022/07/29 08:04:40;;;;;;;5.15;1.67;;;17.20;99.90;;;;;;5031108;28;20049;-75
2022/07/29 08:07:07;;;;;;;3.05;1.70;;;17.20;99.90;;;;;;5018169;28;20063;-75
2022/07/29 08:09:34;;;;;;;7.13;1.98;;;17.30;99.90;;;;;;5040000;28;20045;-75
2022/07/29 08:12:03;;;;;;;7.63;1.67;;;17.40;99.90;;;;;;5041191;28;20491;-76
2022/07/29 08:14:29;;;;;;;5.25;1.50;;;17.50;99.90;;;;;;5050394;28;20041;-76
2022/07/29 08:16:55;;;;;;;7.30;1.80;;;17.60;99.90;;;;;;5025216;28;20154;-76
2022/07/29 08:19:21;;;;;;;4.45;2.05;;;17.50;99.90;;;;;;5049838;28;20080;-76
2022/07/29 08:21:46;;;;;;;5.20;1.70;;;17.60;99.90;;;;;;5046525;28;20049;-75
2022/07/29 08:26:56;;;;;;;4.20;1.48;;;17.60;99.90;;;;;;5022526;28;20060;-76
2022/07/29 08:29:22;;;;;;;3.90;1.98;;;17.60;99.90;;;;;;5065028;28;20041;-76
2022/07/29 08:31:47;;;;;;;6.53;1.52;;;17.70;99.90;;;;;;5048883;28;20067;-75
2022/07/29 08:34:13;;;;;;;5.43;1.65;;;17.80;99.90;;;;;;5048423;28;20186;-75
2022/07/29 08:36:39;;;;;;;4.50;1.73;;;17.80;99.90;;;;;;5035566;28;20053;-76
2022/07/29 08:39:05;;;;;;;5.35;1.50;;;17.90;99.90;;;;;;5048420;28;20067;-76
2022/07/29 08:41:31;;;;;;;6.25;1.67;;;17.90;99.90;;;;;;5050917;28;20049;-75
2022/07/29 08:43:57;;;;;;;4.25;1.45;;;18.10;99.90;;;;;;5034783;28;20037;-75
2022/07/29 08:46:23;;;;;;;4.28;1.83;;;18.00;99.90;;;;;;5023175;28;20056;-75
2022/07/29 08:48:49;;;;;;;3.72;1.52;;;18.00;99.90;;;;;;5033922;28;20041;-75
2022/07/29 08:51:18;;;;;;;8.55;1.80;;;17.80;99.90;;;;;;5035940;28;20516;-75
2022/07/29 08:53:47;;;;;;;5.18;1.95;;;17.90;99.90;;;;;;5044912;28;20041;-75
2022/07/29 08:56:16;;;;;;;4.28;1.50;;;17.80;99.90;;;;;;5034775;28;20435;-76
2022/07/29 08:58:42;;;;;;;5.45;1.65;;;17.90;99.90;;;;;;5024822;28;20512;-76
2022/07/29 09:01:10;;;;;;;6.80;1.80;;;18.00;99.90;;;;;;5048923;28;20053;-76
2022/07/29 09:03:37;;;;;;;5.63;1.90;;;17.90;99.90;;;;;;5036410;28;20212;-75
2022/07/29 09:06:03;;;;;;;6.70;2.05;;;17.90;99.90;;;;;;5042802;28;20561;-76
2022/07/29 09:08:32;;;;;;;4.53;1.80;;;17.90;99.90;;;;;;5018485;28;20055;-75
2022/07/29 09:10:59;;;;;;;3.80;2.05;;;17.90;99.90;;;;;;5049168;28;20045;-76
2022/07/29 09:13:25;;;;;;;6.40;2.28;;;17.90;99.90;;;;;;5040635;28;20048;-76
2022/07/29 09:15:51;;;;;;;7.05;1.88;;;17.90;99.90;;;;;;5053452;28;20044;-76
2022/07/29 09:18:38;;;;;;;4.93;2.00;;;18.10;99.90;;;;;;5030792;28;20052;-75
2022/07/29 09:24:08;;;;;;;5.65;1.67;;;18.10;99.90;;;;;;5029009;28;20053;-76
2022/07/29 09:26:37;;;;;;;4.45;1.95;;;18.10;99.90;;;;;;5019655;28;20057;-76
2022/07/29 09:29:09;;;;;;;4.65;2.03;;;18.10;99.90;;;;;;5045782;28;20048;-76
2022/07/29 09:31:37;;;;;;;6.45;2.20;;;18.20;99.90;;;;;;5047711;28;20049;-76
2022/07/29 09:34:04;;;;;;;5.30;1.92;;;18.30;99.90;;;;;;5036876;28;20103;-76
2022/07/29 09:36:30;;;;;;;4.75;1.95;;;18.30;99.90;;;;;;5016097;28;20089;-76
2022/07/29 09:39:00;;;;;;;4.93;2.20;;;18.30;99.90;;;;;;5040328;28;20091;-75
2022/07/29 09:41:29;;;;;;;5.43;2.08;;;18.30;99.90;;;;;;5048527;28;20057;-75
2022/07/29 09:43:59;;;;;;;5.50;1.90;;;18.50;99.90;;;;;;5034114;28;20037;-76
2022/07/29 09:46:25;;;;;;;6.13;2.38;;;18.60;99.90;;;;;;5034186;28;20036;-76
2022/07/29 09:49:11;;;;;;;6.15;2.05;;;18.80;99.90;;;;;;5044272;28;20057;-75
2022/07/29 09:51:37;;;;;;;7.30;2.15;;;18.80;99.90;;;;;;5048967;28;20053;-76
2022/07/29 09:54:23;;;;;;;5.00;2.13;;;18.90;99.90;;;;;;5046067;28;20041;-75
2022/07/29 09:56:49;;;;;;;7.68;2.50;;;18.90;99.90;;;;;;5013017;28;20536;-76
2022/07/29 09:59:15;;;;;;;8.38;2.30;;;19.00;99.90;;;;;;5028479;28;20049;-77
2022/07/29 10:01:41;;;;;;;6.18;2.28;;;19.20;99.90;;;;;;5037253;28;20096;-76
2022/07/29 10:04:07;;;;;;;7.13;2.13;;;19.20;99.90;;;;;;5027523;28;20095;-76
2022/07/29 10:06:33;;;;;;;4.88;2.22;;;19.20;99.90;;;;;;5022452;28;20049;-77
2022/07/29 10:09:11;;;;;;;4.43;1.73;;;19.10;99.90;;;;;;5045698;28;20044;-76
2022/07/29 10:11:37;;;;;;;5.40;2.10;;;19.20;99.90;;;;;;5045673;28;20053;-76
2022/07/29 10:14:04;;;;;;;5.00;2.70;;;19.20;99.90;;;;;;5019339;28;20136;-76
2022/07/29 10:16:33;;;;;;;7.40;2.53;;;19.20;99.90;;;;;;5023981;28;20053;-76
2022/07/29 10:19:01;;;;;;;3.35;2.10;;;19.20;99.90;;;;;;5036258;28;20063;-76
2022/07/29 10:21:27;;;;;;;6.78;2.55;;;19.30;99.90;;;;;;5040676;28;20124;-76
2022/07/29 10:23:53;;;;;;;6.50;2.08;;;19.30;99.90;;;;;;5033782;28;20050;-76
2022/07/29 10:26:22;;;;;;;6.57;2.40;;;19.30;99.90;;;;;;5020796;28;20064;-76
2022/07/29 10:28:48;;;;;;;4.72;2.47;;;19.20;99.90;;;;;;5028237;28;20069;-76
2022/07/29 10:31:26;;;;;;;5.57;1.98;;;19.10;99.90;;;;;;5038345;28;20088;-76
2022/07/29 10:34:19;;;;;;;6.28;2.40;;;19.20;99.90;;;;;;5046563;28;20030;-76
2022/07/29 10:37:01;;;;;;;6.28;1.98;;;19.30;99.90;;;;;;5028193;28;20393;-76
2022/07/29 10:39:56;;;;;;;8.35;2.38;;;19.50;99.90;;;;;;5049464;28;20479;-76
2022/07/29 10:42:24;;;;;;;4.65;1.90;;;19.60;99.90;;;;;;5035689;28;20049;-74
2022/07/29 10:44:53;;;;;;;4.00;2.20;;;19.70;99.90;;;;;;5041361;28;20135;-63
2022/07/29 10:47:21;;;;;;;6.32;2.00;;;19.70;99.90;;;;;;5012762;28;20106;-63
2022/07/29 10:49:57;;;;;;;4.28;2.00;;;19.80;99.90;;;;;;5031399;28;20050;-62
2022/07/29 10:52:27;;;;;;;4.28;2.10;;;19.90;99.90;;;;;;5030178;28;20076;-62
2022/07/29 10:54:53;;;;;;;5.88;2.58;;;19.80;99.90;;;;;;5036133;28;20099;-62
2022/07/29 10:57:26;;;;;;;4.97;2.13;;;19.80;99.90;;;;;;5019648;28;20048;-62
2022/07/29 11:00:26;;;;;;;6.40;2.38;;;19.80;99.90;;;;;;5029650;28;20049;-62
2022/07/29 11:02:54;;;;;;;6.70;2.30;;;19.70;99.90;;;;;;5033802;28;20049;-62
2022/07/29 11:05:20;;;;;;;7.35;2.30;;;19.60;99.90;;;;;;5046486;28;20055;-62
2022/07/29 11:08:23;;;;;;;4.75;2.30;;;19.60;99.90;;;;;;5019168;28;20038;-62
2022/07/29 11:11:13;;;;;;;7.75;2.30;;;19.80;99.90;;;;;;5041008;28;20049;-62
2022/07/29 11:13:47;;;;;;;5.10;2.38;;;19.80;99.90;;;;;;5037382;28;20041;-63
2022/07/29 11:16:14;;;;;;;5.15;2.50;;;19.80;99.90;;;;;;5039221;28;20037;-63
2022/07/29 11:19:12;;;;;;;6.80;1.95;;;19.90;99.90;;;;;;5029809;28;20043;-62
2022/07/29 11:21:40;;;;;;;5.88;2.42;;;20.00;99.90;;;;;;5030771;28;20049;-62
2022/07/29 11:24:14;;;;;;;6.00;2.42;;;20.00;99.90;;;;;;5033669;28;20543;-62
2022/07/29 11:26:41;;;;;;;4.90;2.28;;;19.90;99.90;;;;;;5019694;28;20050;-63
2022/07/29 11:29:22;;;;;;;3.80;2.00;;;20.10;99.90;;;;;;5025898;28;20049;-62
2022/07/29 11:31:53;;;;;;;6.28;2.75;;;20.00;99.90;;;;;;5037893;28;20041;-63
2022/07/29 11:34:29;;;;;;;7.25;1.73;;;19.90;99.90;;;;;;5037187;28;20051;-62
2022/07/29 11:37:10;;;;;;;6.18;2.35;;;20.10;99.90;;;;;;5022825;28;20060;-62
2022/07/29 11:39:42;;;;;;;8.05;2.20;;;20.20;99.90;;;;;;5051722;28;20072;-62
2022/07/29 11:42:19;;;;;;;5.55;2.10;;;20.10;99.90;;;;;;5038292;28;20114;-62
2022/07/29 11:44:58;;;;;;;8.15;2.45;;;20.10;99.90;;;;;;5040517;28;20136;-62
2022/07/29 11:47:28;;;;;;;5.80;2.20;;;20.20;99.90;;;;;;5028987;28;20689;-63
2022/07/29 11:49:56;;;;;;;6.60;2.45;;;20.30;99.90;;;;;;5047762;28;20171;-62
2022/07/29 11:52:23;;;;;;;4.57;2.53;;;20.50;99.90;;;;;;5043328;28;20404;-62
2022/07/29 11:54:50;;;;;;;6.30;2.55;;;20.40;99.90;;;;;;5035298;28;20057;-62
2022/07/29 11:57:18;;;;;;;6.30;2.63;;;20.40;99.90;;;;;;5013512;28;20045;-63
2022/07/29 11:59:46;;;;;;;7.15;2.58;;;20.10;99.90;;;;;;5033716;28;20041;-62
2022/07/29 12:02:13;;;;;;;6.97;2.95;;;20.20;99.90;;;;;;5032943;28;20065;-62
2022/07/29 12:04:53;;;;;;;6.60;2.88;;;20.40;99.90;;;;;;5030344;28;20054;-62
2022/07/29 12:07:35;;;;;;;6.93;2.63;;;20.40;99.90;;;;;;5014051;28;20404;-63
2022/07/29 12:10:01;;;;;;;6.55;3.20;;;20.30;99.90;;;;;;5043355;28;20114;-63
2022/07/29 12:12:27;;;;;;;5.78;2.85;;;20.30;99.90;;;;;;5040845;28;20409;-62
2022/07/29 12:14:55;;;;;;;6.00;3.00;;;20.50;99.90;;;;;;5038623;28;20094;-62
2022/07/29 12:17:29;;;;;;;8.15;2.80;;;20.70;99.90;;;;;;5022889;28;20037;-62
2022/07/29 12:19:55;;;;;;;5.63;2.90;;;20.50;99.90;;;;;;5036775;28;20037;-62
2022/07/29 12:22:33;;;;;;;6.30;2.95;;;20.50;99.90;;;;;;5038924;28;20064;-62
2022/07/29 12:25:18;;;;;;;6.45;3.20;;;20.50;99.90;;;;;;5038610;28;20053;-62
2022/07/29 12:27:44;;;;;;;7.25;2.85;;;20.70;99.90;;;;;;5024947;28;20040;-63
2022/07/29 12:30:15;;;;;;;7.65;3.17;;;20.60;99.90;;;;;;5039893;28;20053;-62
2022/07/29 12:32:47;;;;;;;;;;;20.80;99.90;;;;;;5035161;28;20508;-63
2022/07/29 12:35:22;;;;;;;9.07;2.95;;;20.90;99.90;;;;;;5035948;28;19928;-62
2022/07/29 12:37:51;;;;;;;4.13;2.78;;;21.00;99.90;;;;;;5021482;28;20554;-62
2022/07/29 12:40:17;;;;;;;5.88;3.13;;;21.00;99.90;;;;;;5037995;28;20061;-62
2022/07/29 12:43:07;;;;;;;7.43;2.45;;;21.30;99.90;;;;;;5037306;28;20037;-63
2022/07/29 12:45:33;;;;;;;5.05;2.30;;;21.20;99.90;;;;;;5041702;28;20045;-62
2022/07/29 12:47:59;;;;;;;6.55;2.22;;;21.30;99.90;;;;;;5019511;28;20056;-63
2022/07/29 12:50:24;;;;;;;6.22;1.90;;;21.50;99.90;;;;;;5039982;28;20053;-62
2022/07/29 12:52:50;;;;;;;5.78;1.63;;;21.60;99.90;;;;;;5036732;28;20049;-62
2022/07/29 12:55:36;;;;;;;6.18;2.35;;;21.70;99.90;;;;;;5041329;28;20045;-63
2022/07/29 12:58:02;;;;;;;6.00;1.77;;;21.80;99.90;;;;;;5033832;28;20045;-63
2022/07/29 13:00:28;;;;;;;3.88;1.67;;;21.90;99.90;;;;;;5047301;28;20049;-63
2022/07/29 13:02:56;;;;;;;6.00;1.77;;;22.00;99.90;;;;;;5035350;28;20767;-62
2022/07/29 13:05:22;;;;;;;5.72;2.08;;;22.00;99.90;;;;;;5034336;28;20595;-63
2022/07/29 13:07:50;;;;;;;7.18;2.08;;;22.10;99.90;;;;;;5012487;28;20109;-63